Time;durP1;ratioP1;P1;durP2;ratioP2;P2;SDS_P1;SDS_P2;PMS_P1;PMS_P2;Temp;Humidity;BMP_temperature;BMP_pressure;BME280_temperature;BME280_humidity;BME280_pressure;Samples;Min_cycle;Max_cycle;Signal;HPM_P1;HPM_P2
2022/09/01 00:00:49;;;;;;;8.00;5.28;;;;;;;;;;5077870;28;20059;-79
2022/09/01 00:03:17;;;;;;;9.35;5.00;;;;;;;;;;5073148;28;20568;-79
2022/09/01 00:05:45;;;;;;;10.52;5.47;;;;;;;;;;5092840;28;20075;-79
2022/09/01 00:08:12;;;;;;;8.23;4.70;;;;;;;;;;5092236;28;20082;-78
2022/09/01 00:10:46;;;;;;;8.57;5.20;;;;;;;;;;5092142;28;20143;-78
2022/09/01 00:13:13;;;;;;;8.85;5.20;;;;;;;;;;5093696;28;20056;-79
2022/09/01 00:15:39;;;;;;;9.45;5.45;;;;;;;;;;5094625;28;20132;-79
2022/09/01 00:18:06;;;;;;;7.47;5.30;;;;;;;;;;5093175;28;20044;-80
2022/09/01 00:20:32;;;;;;;7.03;5.35;;;;;;;;;;5090457;28;20131;-77
2022/09/01 00:22:59;;;;;;;8.18;5.40;;;;;;;;;;5098365;28;20094;-79
2022/09/01 00:25:26;;;;;;;11.32;5.50;;;;;;;;;;5098242;28;20051;-78
2022/09/01 00:27:54;;;;;;;12.18;6.03;;;;;;;;;;5101599;28;20044;-79
2022/09/01 00:30:22;;;;;;;8.88;6.30;;;;;;;;;;5101195;28;20719;-79
2022/09/01 00:32:49;;;;;;;8.80;6.43;;;;;;;;;;5099070;28;20121;-79
2022/09/01 00:35:16;;;;;;;9.27;5.95;;;;;;;;;;5101321;28;20077;-79
2022/09/01 00:37:43;;;;;;;13.43;6.85;;;;;;;;;;5100715;28;20047;-79
2022/09/01 00:40:11;;;;;;;9.73;5.78;;;;;;;;;;5099135;28;20166;-80
2022/09/01 00:42:38;;;;;;;8.27;5.68;;;;;;;;;;5099862;28;20059;-80
2022/09/01 00:45:07;;;;;;;9.25;5.45;;;;;;;;;;5101699;28;20135;-79
2022/09/01 00:47:35;;;;;;;7.55;5.68;;;;;;;;;;5100018;28;20098;-78
2022/09/01 00:50:05;;;;;;;9.90;6.47;;;;;;;;;;5097908;28;20126;-79
2022/09/01 00:52:38;;;;;;;13.30;6.70;;;;;;;;;;5099675;28;20724;-79
2022/09/01 00:55:10;;;;;;;14.25;6.93;;;;;;;;;;5101124;28;20044;-79
2022/09/01 00:57:36;;;;;;;10.05;7.32;;;;;;;;;;5093817;28;20067;-79
2022/09/01 01:00:15;;;;;;;12.02;8.27;;;;;;;;;;5100827;28;20427;-79
2022/09/01 01:02:43;;;;;;;11.35;7.22;;;;;;;;;;5098479;28;20048;-79
2022/09/01 01:05:10;;;;;;;10.00;7.68;;;;;;;;;;5098054;28;20067;-79
2022/09/01 01:07:43;;;;;;;14.57;8.00;;;;;;;;;;5100187;28;20434;-79
2022/09/01 01:10:13;;;;;;;11.85;8.50;;;;;;;;;;5099816;28;20048;-79
2022/09/01 01:12:42;;;;;;;13.70;9.10;;;;;;;;;;5099988;28;20056;-78
2022/09/01 01:15:10;;;;;;;13.32;8.63;;;;;;;;;;5101748;28;20048;-79
2022/09/01 01:17:37;;;;;;;12.45;9.15;;;;;;;;;;5100982;28;20074;-79
2022/09/01 01:23:04;;;;;;;12.32;8.52;;;;;;;;;;5099485;28;20056;-79
2022/09/01 01:25:37;;;;;;;11.27;7.53;;;;;;;;;;5100091;28;20359;-79
2022/09/01 01:28:12;;;;;;;13.77;8.82;;;;;;;;;;5103042;28;20070;-78
2022/09/01 01:30:40;;;;;;;10.73;7.27;;;;;;;;;;5115299;28;20048;-78
2022/09/01 01:33:08;;;;;;;13.88;8.15;;;;;;;;;;5113968;28;20100;-78
2022/09/01 01:35:36;;;;;;;12.10;7.57;;;;;;;;;;5084004;28;20044;-78
2022/09/01 01:38:06;;;;;;;9.23;7.10;;;;;;;;;;5097859;28;20047;-79
2022/09/01 01:40:33;;;;;;;9.30;7.25;;;;;;;;;;5098177;28;20082;-78
2022/09/01 01:43:00;;;;;;;10.32;6.35;;;;;;;;;;5099194;28;20040;-78
2022/09/01 01:45:27;;;;;;;11.95;7.40;;;;;;;;;;5080581;28;20047;-80
2022/09/01 01:47:55;;;;;;;13.00;7.20;;;;;;;;;;5097645;28;20143;-78
2022/09/01 01:50:26;;;;;;;12.85;7.30;;;;;;;;;;5099359;28;20071;-79
2022/09/01 01:52:53;;;;;;;9.55;7.10;;;;;;;;;;5098129;28;20107;-79
2022/09/01 01:55:27;;;;;;;10.40;7.63;;;;;;;;;;5090842;28;20056;-78
2022/09/01 01:57:55;;;;;;;10.73;7.18;;;;;;;;;;5060761;28;20451;-79
2022/09/01 02:00:23;;;;;;;14.35;7.28;;;;;;;;;;5078095;28;20087;-78
2022/09/01 02:02:56;;;;;;;10.88;7.38;;;;;;;;;;5077076;28;20497;-77
2022/09/01 02:05:25;;;;;;;13.05;7.78;;;;;;;;;;5062145;28;20064;-79
2022/09/01 02:07:54;;;;;;;15.63;8.23;;;;;;;;;;5080478;28;20052;-78
2022/09/01 02:10:22;;;;;;;11.60;7.55;;;;;;;;;;5079720;28;20445;-78
2022/09/01 02:12:49;;;;;;;13.15;7.15;;;;;;;;;;5079450;28;20088;-79
2022/09/01 02:15:15;;;;;;;11.25;7.57;;;;;;;;;;5057963;28;20079;-79
2022/09/01 02:17:43;;;;;;;12.00;6.68;;;;;;;;;;5073776;28;20109;-78
2022/09/01 02:20:10;;;;;;;10.40;6.80;;;;;;;;;;5081705;28;20104;-78
2022/09/01 02:22:36;;;;;;;9.35;7.05;;;;;;;;;;5056342;28;20103;-78
2022/09/01 02:25:04;;;;;;;14.27;6.78;;;;;;;;;;5075203;28;20080;-78
2022/09/01 02:27:35;;;;;;;12.10;6.43;;;;;;;;;;5056735;28;20117;-78
2022/09/01 02:30:02;;;;;;;10.50;6.88;;;;;;;;;;5056760;28;20083;-79
2022/09/01 02:32:29;;;;;;;10.75;6.68;;;;;;;;;;5056464;28;20080;-78
2022/09/01 02:35:00;;;;;;;8.60;6.70;;;;;;;;;;5076626;28;20159;-79
2022/09/01 02:37:26;;;;;;;11.90;7.10;;;;;;;;;;5075299;28;20066;-76
2022/09/01 02:39:56;;;;;;;10.57;7.22;;;;;;;;;;5074854;28;20068;-78
2022/09/01 02:42:26;;;;;;;12.23;8.35;;;;;;;;;;5072096;28;20505;-78
2022/09/01 02:44:53;;;;;;;11.73;7.15;;;;;;;;;;5076090;28;20052;-78
2022/09/01 02:47:22;;;;;;;10.52;7.82;;;;;;;;;;5075910;28;20052;-78
2022/09/01 02:49:49;;;;;;;9.45;7.65;;;;;;;;;;5073576;28;20056;-78
2022/09/01 02:52:19;;;;;;;13.82;7.63;;;;;;;;;;5079840;28;20106;-79
2022/09/01 02:54:48;;;;;;;10.77;7.50;;;;;;;;;;5083788;28;20056;-78
2022/09/01 02:57:15;;;;;;;9.15;6.90;;;;;;;;;;5095596;28;20080;-79
2022/09/01 02:59:42;;;;;;;11.13;7.38;;;;;;;;;;5095419;28;20074;-78
2022/09/01 03:02:09;;;;;;;12.07;7.93;;;;;;;;;;5099263;28;20040;-78
2022/09/01 03:04:35;;;;;;;13.52;8.65;;;;;;;;;;5094455;28;20048;-79
2022/09/01 03:07:03;;;;;;;15.45;9.20;;;;;;;;;;5095714;28;20062;-77
2022/09/01 03:09:31;;;;;;;13.63;9.25;;;;;;;;;;5093658;28;20066;-79
2022/09/01 03:11:58;;;;;;;14.68;9.73;;;;;;;;;;5096356;28;20040;-79
2022/09/01 03:14:24;;;;;;;15.13;9.02;;;;;;;;;;5100233;28;20048;-79
2022/09/01 03:16:53;;;;;;;16.30;8.85;;;;;;;;;;5100051;28;20062;-79
2022/09/01 03:19:19;;;;;;;16.63;10.68;;;;;;;;;;5097095;28;20045;-78
2022/09/01 03:21:46;;;;;;;20.40;11.40;;;;;;;;;;5076529;28;20535;-78
2022/09/01 03:24:15;;;;;;;17.20;10.70;;;;;;;;;;5095976;28;20142;-78
2022/09/01 03:26:42;;;;;;;16.25;10.70;;;;;;;;;;5094159;28;20044;-77
2022/09/01 03:29:09;;;;;;;20.90;10.55;;;;;;;;;;5093269;28;20075;-77
2022/09/01 03:31:35;;;;;;;16.67;10.40;;;;;;;;;;5093787;28;20124;-77
2022/09/01 03:34:02;;;;;;;17.92;11.55;;;;;;;;;;5092389;28;20142;-78
2022/09/01 03:36:29;;;;;;;20.73;10.73;;;;;;;;;;5085049;28;20076;-77
2022/09/01 03:38:56;;;;;;;16.88;11.52;;;;;;;;;;5072935;28;20076;-77
2022/09/01 03:41:24;;;;;;;16.95;10.52;;;;;;;;;;5070587;28;20139;-77
2022/09/01 03:43:53;;;;;;;17.88;10.95;;;;;;;;;;5052283;28;20489;-77
2022/09/01 03:46:21;;;;;;;20.08;12.23;;;;;;;;;;5071347;28;20064;-77
2022/09/01 03:48:51;;;;;;;19.15;11.68;;;;;;;;;;5073470;28;20044;-79
2022/09/01 03:51:21;;;;;;;19.38;11.68;;;;;;;;;;5080696;28;20066;-79
2022/09/01 03:53:53;;;;;;;17.65;11.55;;;;;;;;;;5075316;28;20076;-77
2022/09/01 03:56:22;;;;;;;15.30;9.95;;;;;;;;;;5079659;28;20049;-77
2022/09/01 03:58:49;;;;;;;13.35;9.32;;;;;;;;;;5091075;28;20499;-79
2022/09/01 04:01:15;;;;;;;16.45;10.30;;;;;;;;;;5096995;28;20051;-79
2022/09/01 04:03:45;;;;;;;15.65;10.07;;;;;;;;;;5101682;28;20048;-80
2022/09/01 04:06:12;;;;;;;19.83;10.57;;;;;;;;;;5105070;28;20412;-80
2022/09/01 04:08:39;;;;;;;17.70;10.30;;;;;;;;;;5088283;28;20091;-80
2022/09/01 04:11:14;;;;;;;14.88;10.13;;;;;;;;;;5082442;28;20048;-79
2022/09/01 04:13:41;;;;;;;12.75;10.50;;;;;;;;;;5074848;28;20060;-80
2022/09/01 04:18:03;;;;;;;16.25;10.52;;;;;;;;;;5056735;28;20078;-79
2022/09/01 04:19:14;;;;;;;17.05;10.85;;;;;;;;;;5074907;28;20423;-79
2022/09/01 04:21:42;;;;;;;23.27;11.15;;;;;;;;;;5080503;28;20159;-79
2022/09/01 04:24:10;;;;;;;15.65;10.70;;;;;;;;;;5073503;28;20041;-79
2022/09/01 04:26:37;;;;;;;20.33;12.10;;;;;;;;;;5080848;28;20096;-80
2022/09/01 04:29:05;;;;;;;19.30;12.57;;;;;;;;;;5100854;28;20094;-79
2022/09/01 04:31:32;;;;;;;18.35;11.88;;;;;;;;;;5067557;28;20049;-79
2022/09/01 04:33:58;;;;;;;18.05;10.88;;;;;;;;;;5075453;28;20108;-79
2022/09/01 04:36:26;;;;;;;18.13;13.45;;;;;;;;;;5077167;28;20197;-79
2022/09/01 04:38:55;;;;;;;17.50;11.40;;;;;;;;;;5074512;28;20088;-79
2022/09/01 04:41:24;;;;;;;16.80;11.52;;;;;;;;;;5076245;28;20045;-79
2022/09/01 04:43:55;;;;;;;14.85;11.13;;;;;;;;;;5057186;28;20496;-79
2022/09/01 04:46:23;;;;;;;21.27;11.02;;;;;;;;;;5054133;28;20056;-78
2022/09/01 04:48:51;;;;;;;17.25;11.93;;;;;;;;;;5073789;28;20070;-80
2022/09/01 04:51:19;;;;;;;17.05;10.20;;;;;;;;;;5079565;28;20083;-80
2022/09/01 04:53:47;;;;;;;13.82;10.10;;;;;;;;;;5083266;28;20129;-80
2022/09/01 04:56:21;;;;;;;12.93;9.32;;;;;;;;;;5084460;28;20075;-80
2022/09/01 04:58:49;;;;;;;13.57;10.18;;;;;;;;;;5080389;28;20311;-81
2022/09/01 05:04:00;;;;;;;15.95;9.98;;;;;;;;;;5142560;22;20069;-84
2022/09/01 05:06:33;;;;;;;13.65;8.98;;;;;;;;;;5035671;28;20070;-85
2022/09/01 05:08:59;;;;;;;11.77;8.38;;;;;;;;;;5036989;28;20054;-83
2022/09/01 05:11:26;;;;;;;9.98;7.53;;;;;;;;;;5018620;28;20076;-84
2022/09/01 05:13:56;;;;;;;13.63;8.35;;;;;;;;;;5029189;28;20056;-86
2022/09/01 05:16:24;;;;;;;12.95;8.45;;;;;;;;;;5036572;28;20045;-85
2022/09/01 05:18:54;;;;;;;11.88;7.97;;;;;;;;;;5035204;28;20079;-84
2022/09/01 05:21:25;;;;;;;11.48;7.70;;;;;;;;;;5035204;28;20128;-84
2022/09/01 05:23:53;;;;;;;11.43;6.93;;;;;;;;;;5036921;28;20060;-85
2022/09/01 05:26:22;;;;;;;11.82;7.28;;;;;;;;;;5038490;28;20585;-85
2022/09/01 05:28:52;;;;;;;9.90;6.53;;;;;;;;;;5018699;28;20129;-84
2022/09/01 05:31:19;;;;;;;11.60;7.45;;;;;;;;;;5037834;28;20077;-85
2022/09/01 05:33:47;;;;;;;10.75;7.07;;;;;;;;;;5019659;28;20133;-84
2022/09/01 05:36:14;;;;;;;12.82;7.07;;;;;;;;;;5035488;28;20533;-84
2022/09/01 05:38:41;;;;;;;12.95;6.88;;;;;;;;;;5035509;28;20045;-83
2022/09/01 05:41:08;;;;;;;8.68;6.65;;;;;;;;;;5034669;28;20050;-83
2022/09/01 05:43:35;;;;;;;10.65;6.70;;;;;;;;;;5016868;28;20111;-84
2022/09/01 05:46:06;;;;;;;11.40;6.45;;;;;;;;;;5016409;28;20302;-84
2022/09/01 05:48:38;;;;;;;10.48;5.97;;;;;;;;;;5033737;28;20049;-83
2022/09/01 05:51:05;;;;;;;12.43;6.68;;;;;;;;;;5034503;28;20053;-84
2022/09/01 05:53:57;;;;;;;17.17;6.88;;;;;;;;;;5035879;28;20053;-82
2022/09/01 05:56:27;;;;;;;11.85;7.82;;;;;;;;;;5036205;28;20045;-83
2022/09/01 05:58:54;;;;;;;12.93;7.43;;;;;;;;;;5040616;28;20054;-83
2022/09/01 06:01:41;;;;;;;15.15;7.32;;;;;;;;;;5034957;28;20054;-84
2022/09/01 06:04:13;;;;;;;10.43;6.88;;;;;;;;;;5034858;28;20426;-83
2022/09/01 06:06:45;;;;;;;11.38;6.90;;;;;;;;;;5038321;28;20108;-82
2022/09/01 06:09:35;;;;;;;10.27;7.20;;;;;;;;;;5036256;28;20049;-83
2022/09/01 06:12:02;;;;;;;11.40;7.68;;;;;;;;;;5037153;28;20580;-84
2022/09/01 06:14:28;;;;;;;13.57;6.75;;;;;;;;;;5039009;28;20049;-83
2022/09/01 06:16:55;;;;;;;9.43;6.78;;;;;;;;;;5037121;28;20073;-84
2022/09/01 06:19:21;;;;;;;13.02;7.40;;;;;;;;;;5045112;28;20075;-86
2022/09/01 06:21:48;;;;;;;13.80;8.10;;;;;;;;;;5055851;28;20041;-84
2022/09/01 06:24:17;;;;;;;20.67;11.75;;;;;;;;;;5052162;28;20105;-84
2022/09/01 06:26:45;;;;;;;20.58;10.73;;;;;;;;;;5039887;28;20050;-83
2022/09/01 06:29:14;;;;;;;16.40;9.63;;;;;;;;;;5036011;28;20055;-83
2022/09/01 06:31:41;;;;;;;22.83;9.73;;;;;;;;;;5033371;28;20057;-84
2022/09/01 06:34:12;;;;;;;23.58;9.50;;;;;;;;;;5034616;28;20076;-82
2022/09/01 06:36:39;;;;;;;15.88;9.13;;;;;;;;;;5033420;28;20051;-84
2022/09/01 06:39:07;;;;;;;14.25;8.02;;;;;;;;;;5033788;28;20509;-84
2022/09/01 06:41:37;;;;;;;14.18;8.00;;;;;;;;;;5037963;28;20081;-82
2022/09/01 06:44:03;;;;;;;14.85;7.85;;;;;;;;;;5035749;28;20100;-81
2022/09/01 06:46:30;;;;;;;12.70;7.43;;;;;;;;;;5039442;28;20071;-83
2022/09/01 06:48:57;;;;;;;12.02;7.20;;;;;;;;;;5034584;28;20533;-83
2022/09/01 06:51:25;;;;;;;12.10;7.45;;;;;;;;;;5034694;28;20103;-84
2022/09/01 06:53:58;;;;;;;10.98;6.75;;;;;;;;;;5033485;28;20490;-85
2022/09/01 06:56:27;;;;;;;11.43;5.88;;;;;;;;;;5024538;28;20057;-83
2022/09/01 06:58:58;;;;;;;6.88;4.70;;;;;;;;;;5017160;28;20057;-84
2022/09/01 07:01:26;;;;;;;5.47;4.22;;;;;;;;;;5033591;28;20099;-84
2022/09/01 07:03:54;;;;;;;7.25;4.38;;;;;;;;;;5034175;28;20048;-82
2022/09/01 07:06:30;;;;;;;6.43;4.03;;;;;;;;;;5018854;28;20057;-84
2022/09/01 07:09:16;;;;;;;12.20;4.15;;;;;;;;;;5035751;28;20490;-84
2022/09/01 07:12:03;;;;;;;8.65;3.92;;;;;;;;;;5021456;28;20088;-83
2022/09/01 07:14:49;;;;;;;7.18;3.83;;;;;;;;;;5035684;28;20502;-83
2022/09/01 07:17:40;;;;;;;7.57;3.60;;;;;;;;;;5036885;28;20053;-83
2022/09/01 07:20:09;;;;;;;6.30;3.10;;;;;;;;;;5016684;28;20053;-82
2022/09/01 07:22:52;;;;;;;6.05;3.22;;;;;;;;;;5017685;28;20073;-83
2022/09/01 07:25:37;;;;;;;8.98;3.40;;;;;;;;;;5032819;28;20137;-84
2022/09/01 07:28:28;;;;;;;5.22;3.20;;;;;;;;;;5032231;28;20412;-82
2022/09/01 07:31:04;;;;;;;8.73;3.45;;;;;;;;;;5014725;28;20049;-82
2022/09/01 07:33:53;;;;;;;5.75;3.05;;;;;;;;;;5023264;28;20049;-84
2022/09/01 07:36:40;;;;;;;7.20;3.05;;;;;;;;;;5018494;28;20502;-85
2022/09/01 07:39:27;;;;;;;4.15;3.22;;;;;;;;;;5032440;28;20053;-84
2022/09/01 07:42:15;;;;;;;7.22;3.25;;;;;;;;;;5031860;28;20068;-82
2022/09/01 07:45:07;;;;;;;9.77;3.38;;;;;;;;;;5017750;28;20045;-82
2022/09/01 07:47:55;;;;;;;6.78;3.20;;;;;;;;;;5043546;28;20046;-86
2022/09/01 07:50:23;;;;;;;4.57;2.95;;;;;;;;;;5030405;28;20045;-86
2022/09/01 07:53:07;;;;;;;7.38;3.40;;;;;;;;;;5048996;28;20045;-84
2022/09/01 07:55:35;;;;;;;6.68;3.58;;;;;;;;;;5035868;28;20075;-84
2022/09/01 07:58:01;;;;;;;6.68;3.53;;;;;;;;;;5034322;28;20049;-85
2022/09/01 08:00:29;;;;;;;7.13;4.00;;;;;;;;;;5032283;28;20195;-83
2022/09/01 08:02:57;;;;;;;8.82;3.35;;;;;;;;;;5015220;28;20052;-83
2022/09/01 08:05:25;;;;;;;7.10;3.67;;;;;;;;;;5032797;28;20103;-84
2022/09/01 08:07:52;;;;;;;8.77;4.38;;;;;;;;;;5032889;28;20509;-85
2022/09/01 08:10:19;;;;;;;12.57;4.63;;;;;;;;;;5032324;28;20472;-84
2022/09/01 08:12:45;;;;;;;12.95;4.25;;;;;;;;;;5016552;28;20058;-86
2022/09/01 08:15:21;;;;;;;14.35;4.97;;;;;;;;;;5033065;28;20528;-82
2022/09/01 08:18:08;;;;;;;12.23;4.75;;;;;;;;;;5017820;28;20045;-84
2022/09/01 08:20:38;;;;;;;8.63;4.63;;;;;;;;;;5014131;28;20045;-85
2022/09/01 08:23:05;;;;;;;9.02;4.93;;;;;;;;;;5016222;28;20469;-83
2022/09/01 08:25:32;;;;;;;8.82;4.47;;;;;;;;;;5014345;28;20073;-84
2022/09/01 08:28:00;;;;;;;8.93;4.72;;;;;;;;;;5013676;28;20077;-84
2022/09/01 08:30:27;;;;;;;8.25;4.60;;;;;;;;;;5018558;28;20077;-85
2022/09/01 08:32:53;;;;;;;8.63;4.57;;;;;;;;;;5023193;28;20057;-85
2022/09/01 08:35:20;;;;;;;8.52;4.55;;;;;;;;;;5014456;28;20057;-85
2022/09/01 08:37:46;;;;;;;13.48;4.30;;;;;;;;;;5032124;28;20085;-83
2022/09/01 08:40:16;;;;;;;6.75;4.25;;;;;;;;;;5014649;28;20072;-87
2022/09/01 08:42:42;;;;;;;9.90;4.03;;;;;;;;;;5034444;28;20115;-85
2022/09/01 08:45:14;;;;;;;8.23;4.28;;;;;;;;;;5037047;28;20045;-86
2022/09/01 08:47:41;;;;;;;7.38;3.97;;;;;;;;;;5035413;28;20092;-85
2022/09/01 08:50:27;;;;;;;6.78;3.72;;;;;;;;;;5023377;28;20045;-85
2022/09/01 08:53:20;;;;;;;7.07;3.90;;;;;;;;;;5018352;28;20104;-84
2022/09/01 08:55:50;;;;;;;7.75;3.92;;;;;;;;;;5030821;28;20056;-85
2022/09/01 08:58:17;;;;;;;7.57;3.78;;;;;;;;;;5032427;28;20128;-87
2022/09/01 09:00:45;;;;;;;6.55;3.90;;;;;;;;;;5036272;28;20556;-84
2022/09/01 09:03:34;;;;;;;6.70;3.35;;;;;;;;;;5034808;28;20105;-86
2022/09/01 09:06:08;;;;;;;7.93;2.97;;;;;;;;;;5035730;28;20053;-85
2022/09/01 09:08:53;;;;;;;6.78;2.40;;;;;;;;;;5034190;28;20053;-84
2022/09/01 09:11:39;;;;;;;7.95;2.70;;;;;;;;;;5034578;28;20049;-85
2022/09/01 09:14:38;;;;;;;6.63;2.60;;;;;;;;;;5035077;28;20049;-84
2022/09/01 09:17:04;;;;;;;8.40;2.78;;;;;;;;;;5003143;28;20370;-86
2022/09/01 09:19:35;;;;;;;6.30;2.65;;;;;;;;;;5034837;28;20056;-83
2022/09/01 09:22:09;;;;;;;7.10;2.60;;;;;;;;;;5032758;28;20077;-84
2022/09/01 09:24:51;;;;;;;7.18;2.35;;;;;;;;;;5034301;28;20107;-82
2022/09/01 09:27:21;;;;;;;5.00;2.28;;;;;;;;;;5034477;28;20049;-83
2022/09/01 09:29:49;;;;;;;7.07;2.15;;;;;;;;;;5033096;28;20528;-85
2022/09/01 09:32:16;;;;;;;7.55;1.70;;;;;;;;;;5032899;28;20139;-84
2022/09/01 09:35:20;;;;;;;9.65;1.55;;;;;;;;;;5034434;28;20056;-83
2022/09/01 09:37:46;;;;;;;8.05;2.10;;;;;;;;;;5033229;28;20049;-84
2022/09/01 09:40:18;;;;;;;3.10;1.63;;;;;;;;;;5034833;28;20490;-82
2022/09/01 09:42:54;;;;;;;2.80;1.60;;;;;;;;;;5035754;28;20045;-85
2022/09/01 09:45:29;;;;;;;4.43;1.40;;;;;;;;;;5033686;28;20049;-86
2022/09/01 09:47:56;;;;;;;6.55;1.73;;;;;;;;;;5034598;28;20045;-85
2022/09/01 09:50:25;;;;;;;13.93;2.20;;;;;;;;;;5034270;28;20056;-86
2022/09/01 09:52:52;;;;;;;3.65;1.40;;;;;;;;;;5032830;28;20459;-83
2022/09/01 09:55:21;;;;;;;3.90;1.60;;;;;;;;;;5034424;28;20474;-86
2022/09/01 09:57:48;;;;;;;5.93;1.52;;;;;;;;;;5034453;28;20052;-83
2022/09/01 10:00:23;;;;;;;7.07;1.50;;;;;;;;;;5034061;28;20158;-84
2022/09/01 10:03:11;;;;;;;4.68;1.40;;;;;;;;;;5034548;28;20494;-85
2022/09/01 10:05:50;;;;;;;3.50;1.60;;;;;;;;;;5033587;28;20577;-85
2022/09/01 10:08:25;;;;;;;4.95;1.30;;;;;;;;;;5035079;28;20084;-87
2022/09/01 10:10:53;;;;;;;4.38;1.42;;;;;;;;;;5035119;28;20111;-86
2022/09/01 10:13:24;;;;;;;8.25;1.50;;;;;;;;;;5034868;28;20060;-87
2022/09/01 10:15:54;;;;;;;6.90;1.48;;;;;;;;;;5037884;28;20068;-84
2022/09/01 10:18:34;;;;;;;5.20;1.30;;;;;;;;;;5035996;28;20091;-84
2022/09/01 10:21:06;;;;;;;3.85;1.50;;;;;;;;;;5031573;28;20058;-84
2022/09/01 10:23:35;;;;;;;5.10;1.30;;;;;;;;;;5033239;28;20061;-85
2022/09/01 10:26:06;;;;;;;7.63;1.27;;;;;;;;;;5035829;28;20053;-84
2022/09/01 10:28:40;;;;;;;3.83;1.20;;;;;;;;;;5034466;28;20056;-83
2022/09/01 10:31:15;;;;;;;4.20;0.90;;;;;;;;;;5034575;28;20052;-84
2022/09/01 10:33:41;;;;;;;2.38;1.10;;;;;;;;;;5036792;28;20063;-86
2022/09/01 10:36:08;;;;;;;2.75;1.10;;;;;;;;;;5035665;28;20081;-83
2022/09/01 10:38:35;;;;;;;3.03;1.23;;;;;;;;;;5034322;28;20113;-85
2022/09/01 10:41:07;;;;;;;5.28;0.95;;;;;;;;;;5036233;28;20049;-85
2022/09/01 10:43:44;;;;;;;1.90;0.90;;;;;;;;;;5037845;28;20092;-82
2022/09/01 10:46:11;;;;;;;6.40;1.15;;;;;;;;;;5036694;28;20077;-85
2022/09/01 10:48:41;;;;;;;3.38;1.27;;;;;;;;;;5036823;28;20101;-84
2022/09/01 10:51:21;;;;;;;3.17;1.15;;;;;;;;;;5037336;28;20041;-86
2022/09/01 10:53:56;;;;;;;4.50;0.90;;;;;;;;;;5037053;28;20103;-87
2022/09/01 10:56:47;;;;;;;2.90;1.20;;;;;;;;;;5036733;28;20061;-87
2022/09/01 10:59:27;;;;;;;3.45;1.20;;;;;;;;;;5035445;28;20124;-86
2022/09/01 11:02:09;;;;;;;2.42;1.10;;;;;;;;;;5019858;28;20099;-86
2022/09/01 11:04:58;;;;;;;3.08;1.20;;;;;;;;;;5035871;28;20386;-84
2022/09/01 11:07:30;;;;;;;4.78;1.20;;;;;;;;;;5035524;28;20045;-83
2022/09/01 11:10:22;;;;;;;3.35;1.00;;;;;;;;;;5036173;28;20064;-84
2022/09/01 11:13:05;;;;;;;5.75;1.08;;;;;;;;;;5020755;28;20092;-83
2022/09/01 11:15:36;;;;;;;6.20;1.23;;;;;;;;;;5036619;28;20137;-84
2022/09/01 11:18:07;;;;;;;2.85;0.80;;;;;;;;;;5036143;28;20188;-85
2022/09/01 11:20:41;;;;;;;3.47;0.88;;;;;;;;;;5014538;28;20141;-85
2022/09/01 11:23:29;;;;;;;2.10;0.95;;;;;;;;;;5031625;28;20475;-86
2022/09/01 11:25:55;;;;;;;6.78;0.98;;;;;;;;;;5013986;28;20110;-84
2022/09/01 11:28:42;;;;;;;2.50;1.00;;;;;;;;;;5031624;28;20052;-85
2022/09/01 11:31:17;;;;;;;1.83;1.00;;;;;;;;;;5032752;28;20046;-84
2022/09/01 11:33:45;;;;;;;2.17;0.85;;;;;;;;;;5033254;28;20053;-84
2022/09/01 11:36:15;;;;;;;4.45;0.95;;;;;;;;;;5034270;28;20449;-86
2022/09/01 11:38:50;;;;;;;1.65;0.77;;;;;;;;;;5019176;28;20083;-84
2022/09/01 11:41:22;;;;;;;3.17;1.10;;;;;;;;;;5037133;28;20056;-84
2022/09/01 11:43:54;;;;;;;3.63;1.08;;;;;;;;;;5018786;28;20081;-85
2022/09/01 11:46:24;;;;;;;7.75;1.17;;;;;;;;;;5036462;28;20046;-85
2022/09/01 11:48:50;;;;;;;2.15;1.00;;;;;;;;;;5018603;28;20083;-85
2022/09/01 11:51:20;;;;;;;5.45;1.13;;;;;;;;;;5018512;28;20386;-86
2022/09/01 11:53:46;;;;;;;3.85;1.20;;;;;;;;;;5036693;28;20049;-85
2022/09/01 11:56:13;;;;;;;1.98;0.80;;;;;;;;;;5034891;28;20053;-85
2022/09/01 11:58:40;;;;;;;2.80;1.00;;;;;;;;;;5046269;28;20482;-83
2022/09/01 12:01:15;;;;;;;4.05;1.02;;;;;;;;;;5030412;28;20132;-84
2022/09/01 12:03:42;;;;;;;3.90;0.90;;;;;;;;;;5034653;28;20084;-85
2022/09/01 12:06:10;;;;;;;3.67;0.90;;;;;;;;;;5035516;28;20073;-85
2022/09/01 12:08:39;;;;;;;5.00;1.00;;;;;;;;;;5033342;28;20054;-85
2022/09/01 12:11:10;;;;;;;3.58;1.10;;;;;;;;;;5034798;28;20042;-82
2022/09/01 12:13:37;;;;;;;4.10;1.00;;;;;;;;;;5034185;28;20084;-83
2022/09/01 12:16:07;;;;;;;2.03;1.05;;;;;;;;;;5033447;28;20053;-84
2022/09/01 12:18:46;;;;;;;10.57;0.95;;;;;;;;;;5035565;28;20053;-83
2022/09/01 12:21:18;;;;;;;1.80;0.90;;;;;;;;;;5035184;28;20056;-84
2022/09/01 12:23:45;;;;;;;4.47;1.20;;;;;;;;;;5034715;28;20545;-83
2022/09/01 12:26:16;;;;;;;4.10;0.90;;;;;;;;;;5034813;28;20104;-83
2022/09/01 12:28:43;;;;;;;3.60;0.98;;;;;;;;;;5035597;28;20128;-85
2022/09/01 12:31:15;;;;;;;3.70;0.93;;;;;;;;;;5037515;28;20049;-85
2022/09/01 12:33:42;;;;;;;5.25;1.00;;;;;;;;;;5038609;28;20127;-85
2022/09/01 12:36:28;;;;;;;2.60;1.17;;;;;;;;;;5037207;28;20132;-83
2022/09/01 12:38:54;;;;;;;;;;;;;;;;;;5036871;28;20198;-84
2022/09/01 12:41:22;;;;;;;3.60;1.25;;;;;;;;;;5035541;28;19972;-85
2022/09/01 12:43:53;;;;;;;3.47;1.17;;;;;;;;;;5036637;28;20053;-84
2022/09/01 12:46:43;;;;;;;2.97;1.00;;;;;;;;;;5036301;28;20049;-85
2022/09/01 12:49:25;;;;;;;1.48;0.80;;;;;;;;;;5036958;28;20115;-83
2022/09/01 12:52:18;;;;;;;2.00;1.10;;;;;;;;;;5036146;28;20073;-85
2022/09/01 12:54:47;;;;;;;1.00;0.80;;;;;;;;;;5032226;28;20064;-83
2022/09/01 12:57:27;;;;;;;3.15;1.20;;;;;;;;;;5038058;28;20244;-84
2022/09/01 13:00:09;;;;;;;2.67;1.00;;;;;;;;;;5036930;28;20487;-83
2022/09/01 13:02:37;;;;;;;5.78;0.90;;;;;;;;;;5036490;28;20045;-82
2022/09/01 13:05:17;;;;;;;4.43;1.00;;;;;;;;;;5037215;28;20563;-83
2022/09/01 13:07:44;;;;;;;4.32;1.10;;;;;;;;;;5037628;28;20092;-85
2022/09/01 13:10:13;;;;;;;3.22;1.10;;;;;;;;;;5041441;28;20045;-83
2022/09/01 13:12:40;;;;;;;3.55;0.90;;;;;;;;;;5042907;28;20049;-83
2022/09/01 13:15:08;;;;;;;2.72;0.90;;;;;;;;;;5035619;28;20080;-84
2022/09/01 13:17:34;;;;;;;1.67;0.70;;;;;;;;;;5035468;28;20057;-83
2022/09/01 13:20:01;;;;;;;3.30;0.90;;;;;;;;;;5036080;28;20048;-81
2022/09/01 13:22:27;;;;;;;3.47;1.10;;;;;;;;;;5037898;28;20081;-83
2022/09/01 13:24:54;;;;;;;1.33;0.77;;;;;;;;;;5033278;28;20095;-83
2022/09/01 13:27:20;;;;;;;4.70;1.23;;;;;;;;;;5034550;28;20113;-82
2022/09/01 13:29:49;;;;;;;1.88;1.20;;;;;;;;;;5036753;28;20057;-82
2022/09/01 13:32:16;;;;;;;3.90;1.10;;;;;;;;;;5039166;28;20111;-83
2022/09/01 13:34:45;;;;;;;2.28;0.82;;;;;;;;;;5035455;28;20073;-79
2022/09/01 13:37:11;;;;;;;1.38;1.00;;;;;;;;;;5034907;28;20077;-82
2022/09/01 13:39:38;;;;;;;3.25;1.30;;;;;;;;;;5034667;28;20132;-81
2022/09/01 13:42:05;;;;;;;2.67;1.10;;;;;;;;;;5035301;28;20085;-79
2022/09/01 13:44:32;;;;;;;3.08;1.35;;;;;;;;;;5038486;28;20080;-81
2022/09/01 13:46:58;;;;;;;2.60;1.20;;;;;;;;;;5036947;28;20050;-82
2022/09/01 13:49:26;;;;;;;2.85;1.00;;;;;;;;;;5038390;28;20041;-80
2022/09/01 13:52:12;;;;;;;2.72;1.05;;;;;;;;;;5024473;28;20050;-82
2022/09/01 13:54:38;;;;;;;3.58;1.08;;;;;;;;;;5021739;28;20092;-77
2022/09/01 13:57:05;;;;;;;4.40;1.25;;;;;;;;;;5020353;28;20087;-81
2022/09/01 13:59:32;;;;;;;2.20;1.20;;;;;;;;;;5034678;28;20046;-78
2022/09/01 14:02:00;;;;;;;1.42;1.05;;;;;;;;;;5031336;28;20124;-77
2022/09/01 14:04:27;;;;;;;2.42;1.10;;;;;;;;;;5033122;28;20049;-78
2022/09/01 14:06:53;;;;;;;2.78;1.00;;;;;;;;;;5044360;28;20085;-85
2022/09/01 14:09:20;;;;;;;2.22;1.00;;;;;;;;;;5020725;28;20423;-83
2022/09/01 14:11:47;;;;;;;4.05;0.95;;;;;;;;;;5031838;28;20092;-83
2022/09/01 14:14:13;;;;;;;3.60;1.17;;;;;;;;;;5032632;28;20045;-85
2022/09/01 14:16:39;;;;;;;1.58;0.88;;;;;;;;;;5056147;28;20481;-83
2022/09/01 14:19:06;;;;;;;3.60;0.90;;;;;;;;;;5057325;28;20545;-81
2022/09/01 14:21:33;;;;;;;3.65;0.95;;;;;;;;;;5040243;28;20069;-82
2022/09/01 14:24:00;;;;;;;7.15;0.75;;;;;;;;;;5057672;28;20073;-83
2022/09/01 14:26:26;;;;;;;3.20;1.02;;;;;;;;;;5041023;28;20099;-82
2022/09/01 14:28:53;;;;;;;4.95;0.80;;;;;;;;;;5060934;28;20056;-81
2022/09/01 14:31:21;;;;;;;2.58;1.00;;;;;;;;;;5042425;28;20478;-84
2022/09/01 14:33:47;;;;;;;1.13;0.70;;;;;;;;;;5043722;28;20078;-81
2022/09/01 14:36:22;;;;;;;3.03;0.95;;;;;;;;;;5046934;28;20083;-83
2022/09/01 14:38:49;;;;;;;3.95;0.98;;;;;;;;;;5064646;28;20303;-84
2022/09/01 14:41:20;;;;;;;3.58;1.08;;;;;;;;;;5062753;28;20131;-83
2022/09/01 14:43:48;;;;;;;3.08;1.00;;;;;;;;;;5063647;28;20045;-81
2022/09/01 14:46:15;;;;;;;2.58;0.88;;;;;;;;;;5048048;28;20626;-82
2022/09/01 14:48:42;;;;;;;1.25;0.80;;;;;;;;;;5065227;28;20048;-83
2022/09/01 14:51:08;;;;;;;2.10;0.90;;;;;;;;;;5065284;28;20113;-85
2022/09/01 14:53:35;;;;;;;1.90;0.98;;;;;;;;;;5045499;28;20510;-84
2022/09/01 14:56:02;;;;;;;3.90;0.93;;;;;;;;;;5042285;28;20053;-83
2022/09/01 14:58:28;;;;;;;6.03;1.00;;;;;;;;;;5024653;28;20046;-85
2022/09/01 15:00:55;;;;;;;5.82;0.88;;;;;;;;;;5024504;28;20049;-84
2022/09/01 15:03:33;;;;;;;4.47;0.90;;;;;;;;;;5009755;28;20109;-83